createdAt,value
2023-03-26T00:00:11.253Z,72.01
2023-03-26T00:01:11.309Z,72.20
2023-03-26T00:02:11.258Z,72.22
2023-03-26T00:03:11.405Z,72.16
2023-03-26T00:04:11.298Z,72.15
2023-03-26T00:05:11.230Z,72.22
2023-03-26T00:06:11.170Z,72.17
2023-03-26T00:07:11.266Z,72.23
2023-03-26T00:08:11.170Z,72.15
2023-03-26T00:09:11.156Z,72.19
2023-03-26T00:10:11.121Z,72.18
2023-03-26T00:11:11.117Z,72.25
2023-03-26T00:12:11.106Z,72.20
2023-03-26T00:13:11.142Z,72.16
2023-03-26T00:14:11.088Z,72.18
2023-03-26T00:15:11.118Z,72.19
2023-03-26T00:16:11.110Z,72.23
2023-03-26T00:17:11.068Z,72.26
2023-03-26T00:18:11.112Z,72.28
2023-03-26T00:19:11.044Z,72.33
2023-03-26T00:20:11.019Z,72.29
2023-03-26T00:21:11.070Z,72.28
2023-03-26T00:22:11.020Z,72.29
2023-03-26T00:23:11.081Z,72.28
2023-03-26T00:24:11.011Z,72.25
2023-03-26T00:25:10.974Z,72.31
2023-03-26T00:26:10.970Z,72.33
2023-03-26T00:27:10.963Z,72.28
2023-03-26T00:28:10.997Z,72.32
2023-03-26T00:29:11.022Z,72.36
2023-03-26T00:30:10.919Z,72.45
2023-03-26T00:31:10.962Z,72.49
2023-03-26T00:32:10.915Z,72.51
2023-03-26T00:33:10.932Z,72.51
2023-03-26T00:34:10.924Z,72.55
2023-03-26T00:35:10.882Z,72.54
2023-03-26T00:36:10.896Z,72.60
2023-03-26T00:37:10.832Z,72.71
2023-03-26T00:38:10.830Z,72.78
2023-03-26T00:39:10.835Z,72.77
2023-03-26T00:40:10.835Z,72.85
2023-03-26T00:41:10.834Z,72.86
2023-03-26T00:42:10.856Z,72.89
2023-03-26T00:43:10.837Z,72.97
2023-03-26T00:44:10.815Z,72.93
2023-03-26T00:45:10.747Z,72.93
2023-03-26T00:46:10.808Z,72.95
2023-03-26T00:47:10.748Z,73.04
2023-03-26T00:48:10.799Z,73.09
2023-03-26T00:49:11.176Z,73.02
2023-03-26T00:50:10.726Z,73.00
2023-03-26T00:51:10.731Z,72.96
2023-03-26T00:52:10.717Z,72.97
2023-03-26T00:53:10.775Z,72.99
2023-03-26T00:54:10.645Z,72.94
2023-03-26T00:55:10.738Z,72.98
2023-03-26T00:56:10.708Z,73.03
2023-03-26T00:57:10.724Z,72.98
2023-03-26T00:58:10.647Z,72.94
2023-03-26T00:59:10.737Z,72.91
2023-03-26T01:00:10.659Z,72.85
2023-03-26T01:01:10.765Z,72.83
2023-03-26T01:02:10.750Z,72.79
2023-03-26T01:03:10.670Z,72.77
2023-03-26T01:04:10.665Z,72.73
2023-03-26T01:05:10.590Z,72.71
2023-03-26T01:06:10.558Z,72.70
2023-03-26T01:07:10.555Z,72.73
2023-03-26T01:08:10.639Z,72.74
2023-03-26T01:09:10.520Z,72.71
2023-03-26T01:10:10.674Z,72.66
2023-03-26T01:11:10.539Z,72.62
2023-03-26T01:12:10.552Z,72.62
2023-03-26T01:13:10.452Z,72.68
2023-03-26T01:14:10.462Z,72.70
2023-03-26T01:15:10.472Z,72.73
2023-03-26T01:16:10.471Z,72.71
2023-03-26T01:17:10.410Z,72.69
2023-03-26T01:18:10.410Z,72.68
2023-03-26T01:19:10.448Z,72.69
2023-03-26T01:20:10.457Z,72.69
2023-03-26T01:21:10.384Z,72.63
2023-03-26T01:22:10.374Z,72.56
2023-03-26T01:23:10.371Z,72.54
2023-03-26T01:24:10.407Z,72.51
2023-03-26T01:25:10.311Z,72.50
2023-03-26T01:26:10.332Z,72.55
2023-03-26T01:27:10.327Z,72.57
2023-03-26T01:28:10.306Z,72.52
2023-03-26T01:29:10.346Z,72.51
2023-03-26T01:30:10.278Z,72.51
2023-03-26T01:31:10.270Z,72.49
2023-03-26T01:32:10.359Z,72.44
2023-03-26T01:33:10.367Z,72.37
2023-03-26T01:34:10.418Z,72.37
2023-03-26T01:35:10.263Z,72.37
2023-03-26T01:36:10.245Z,72.33
2023-03-26T01:37:10.165Z,72.35
2023-03-26T01:38:10.187Z,72.34
2023-03-26T01:39:10.642Z,72.32
2023-03-26T01:40:10.360Z,72.33
2023-03-26T01:41:10.238Z,72.38
2023-03-26T01:42:10.159Z,72.36
2023-03-26T01:43:10.175Z,72.36
2023-03-26T01:44:10.180Z,72.30
2023-03-26T01:45:10.212Z,72.28
2023-03-26T01:46:10.121Z,72.22
2023-03-26T01:47:10.119Z,72.22
2023-03-26T01:48:10.140Z,72.18
2023-03-26T01:49:10.145Z,72.22
2023-03-26T01:50:10.140Z,72.22
2023-03-26T01:51:10.108Z,72.23
2023-03-26T01:52:10.085Z,72.19
2023-03-26T01:53:10.132Z,72.25
2023-03-26T01:54:10.137Z,72.20
2023-03-26T01:55:10.061Z,72.14
2023-03-26T01:56:10.093Z,72.10
2023-03-26T01:57:10.119Z,72.10
2023-03-26T01:58:10.092Z,72.12
2023-03-26T01:59:10.074Z,72.15
2023-03-26T02:00:10.134Z,72.19
2023-03-26T02:01:10.045Z,72.22
2023-03-26T02:02:10.114Z,72.21
2023-03-26T02:03:10.029Z,72.22
2023-03-26T02:04:09.933Z,72.28
2023-03-26T02:05:09.984Z,72.25
2023-03-26T02:06:09.906Z,72.26
2023-03-26T02:07:09.912Z,72.29
2023-03-26T02:08:09.997Z,72.29
2023-03-26T02:09:09.935Z,72.26
2023-03-26T02:10:10.051Z,72.28
2023-03-26T02:11:09.913Z,72.26
2023-03-26T02:12:09.985Z,72.23
2023-03-26T02:13:10.180Z,72.22
2023-03-26T02:14:10.102Z,72.21
2023-03-26T02:15:09.979Z,72.21
2023-03-26T02:16:09.884Z,72.21
2023-03-26T02:17:09.937Z,72.21
2023-03-26T02:18:09.889Z,72.24
2023-03-26T02:19:09.844Z,72.25
2023-03-26T02:20:09.820Z,72.28
2023-03-26T02:21:09.819Z,72.30
2023-03-26T02:22:10.004Z,72.27
2023-03-26T02:23:10.298Z,72.25
2023-03-26T02:24:09.966Z,72.24
2023-03-26T02:25:09.769Z,72.24
2023-03-26T02:26:09.746Z,72.24
2023-03-26T02:27:09.773Z,72.23
2023-03-26T02:28:09.758Z,72.20
2023-03-26T02:29:09.775Z,72.18
2023-03-26T02:30:09.900Z,72.24
2023-03-26T02:31:09.927Z,72.27
2023-03-26T02:32:09.829Z,72.25
2023-03-26T02:33:10.133Z,72.20
2023-03-26T02:34:09.638Z,72.13
2023-03-26T02:35:09.810Z,72.11
2023-03-26T02:36:10.077Z,72.07
2023-03-26T02:37:09.917Z,72.07
2023-03-26T02:38:09.806Z,72.05
2023-03-26T02:39:09.602Z,72.06
2023-03-26T02:40:09.642Z,72.07
2023-03-26T02:41:09.589Z,72.02
2023-03-26T02:42:09.641Z,71.96
2023-03-26T02:43:09.618Z,71.91
2023-03-26T02:44:09.564Z,71.90
2023-03-26T02:45:09.589Z,71.89
2023-03-26T02:46:09.521Z,71.84
2023-03-26T02:47:10.120Z,71.85
2023-03-26T02:48:09.804Z,71.82
2023-03-26T02:49:09.592Z,71.72
2023-03-26T02:50:09.666Z,71.73
2023-03-26T02:51:09.569Z,71.69
2023-03-26T02:52:09.411Z,71.70
2023-03-26T02:53:09.614Z,71.68
2023-03-26T02:54:09.486Z,71.67
2023-03-26T02:55:09.446Z,71.68
2023-03-26T02:56:09.583Z,71.62
2023-03-26T02:57:09.420Z,71.48
2023-03-26T02:58:09.522Z,71.44
2023-03-26T02:59:09.448Z,71.35
2023-03-26T03:00:09.605Z,71.27
2023-03-26T03:01:09.576Z,71.24
2023-03-26T03:02:09.578Z,71.19
2023-03-26T03:03:09.914Z,71.16
2023-03-26T03:04:09.719Z,71.10
2023-03-26T03:05:09.462Z,71.08
2023-03-26T03:06:09.434Z,71.06
2023-03-26T03:07:09.227Z,71.07
2023-03-26T03:08:09.347Z,71.01
2023-03-26T03:09:09.435Z,71.00
2023-03-26T03:10:09.210Z,70.98
2023-03-26T03:11:09.295Z,70.94
2023-03-26T03:12:09.248Z,70.93
2023-03-26T03:13:09.245Z,70.90
2023-03-26T03:14:09.361Z,70.90
2023-03-26T03:15:09.194Z,70.90
2023-03-26T03:16:09.245Z,70.95
2023-03-26T03:17:09.194Z,70.97
2023-03-26T03:18:09.178Z,71.00
2023-03-26T03:19:09.208Z,71.01
2023-03-26T03:20:09.239Z,70.99
2023-03-26T03:21:09.113Z,71.02
2023-03-26T03:22:09.211Z,71.00
2023-03-26T03:23:09.132Z,71.02
2023-03-26T03:24:09.234Z,71.04
2023-03-26T03:25:09.148Z,71.06
2023-03-26T03:26:09.051Z,71.12
2023-03-26T03:27:09.041Z,71.20
2023-03-26T03:28:09.133Z,71.20
2023-03-26T03:29:09.035Z,71.21
2023-03-26T03:30:09.135Z,71.27
2023-03-26T03:31:09.342Z,71.24
2023-03-26T03:32:09.330Z,71.25
2023-03-26T03:33:09.296Z,71.25
2023-03-26T03:34:09.859Z,71.24
2023-03-26T03:35:09.351Z,71.24
2023-03-26T03:36:09.370Z,71.26
2023-03-26T03:37:10.290Z,71.30
2023-03-26T03:38:09.202Z,71.35
2023-03-26T03:39:09.003Z,71.41
2023-03-26T03:40:09.116Z,71.39
2023-03-26T03:41:09.023Z,71.37
2023-03-26T03:42:09.380Z,71.43
2023-03-26T03:43:09.193Z,71.46
2023-03-26T03:44:09.109Z,71.45
2023-03-26T03:45:08.926Z,71.47
2023-03-26T03:46:09.100Z,71.50
2023-03-26T03:47:09.029Z,71.51
2023-03-26T03:48:08.965Z,71.57
2023-03-26T03:49:08.818Z,71.61
2023-03-26T03:50:08.921Z,71.59
2023-03-26T03:51:08.978Z,71.57
2023-03-26T03:52:08.813Z,71.45
2023-03-26T03:53:08.942Z,71.41
2023-03-26T03:54:08.844Z,71.39
2023-03-26T03:55:08.898Z,71.33
2023-03-26T03:56:08.902Z,71.30
2023-03-26T03:57:09.126Z,71.33
2023-03-26T03:58:09.401Z,71.34
2023-03-26T03:59:08.983Z,71.30
2023-03-26T04:00:08.746Z,71.28
2023-03-26T04:01:08.795Z,71.26
2023-03-26T04:02:08.788Z,71.26
2023-03-26T04:03:08.882Z,71.29
2023-03-26T04:04:08.788Z,71.28
2023-03-26T04:05:08.720Z,71.26
2023-03-26T04:06:08.955Z,71.21
2023-03-26T04:07:08.705Z,71.15
2023-03-26T04:08:08.696Z,71.11
2023-03-26T04:09:08.641Z,71.09
2023-03-26T04:10:08.594Z,71.08
2023-03-26T04:11:08.640Z,71.07
2023-03-26T04:12:08.570Z,71.09
2023-03-26T04:13:08.638Z,71.06
2023-03-26T04:14:08.577Z,71.08
2023-03-26T04:15:08.658Z,71.10
2023-03-26T04:16:08.668Z,71.08
2023-03-26T04:17:08.557Z,71.09
2023-03-26T04:18:08.532Z,71.08
2023-03-26T04:19:08.595Z,71.04
2023-03-26T04:20:08.562Z,71.05
2023-03-26T04:21:08.530Z,71.07
2023-03-26T04:22:08.712Z,71.05
2023-03-26T04:23:08.595Z,71.07
2023-03-26T04:24:08.447Z,71.09
2023-03-26T04:25:08.518Z,71.12
2023-03-26T04:26:08.417Z,71.11
2023-03-26T04:27:08.494Z,71.13
2023-03-26T04:28:08.513Z,71.12
2023-03-26T04:29:08.367Z,71.16
2023-03-26T04:30:08.541Z,71.06
2023-03-26T04:31:08.425Z,71.02
2023-03-26T04:32:08.373Z,71.05
2023-03-26T04:33:08.418Z,71.03
2023-03-26T04:34:08.443Z,71.03
2023-03-26T04:35:08.336Z,71.01
2023-03-26T04:36:08.325Z,71.02
2023-03-26T04:37:08.327Z,71.06
2023-03-26T04:38:08.260Z,71.08
2023-03-26T04:39:08.250Z,71.08
2023-03-26T04:40:08.234Z,71.07
2023-03-26T04:41:08.227Z,71.06
2023-03-26T04:42:08.259Z,71.05
2023-03-26T04:43:08.316Z,71.08
2023-03-26T04:44:08.272Z,71.07
2023-03-26T04:45:08.194Z,71.04
2023-03-26T04:46:08.154Z,71.07
2023-03-26T04:47:08.167Z,71.05
2023-03-26T04:48:08.201Z,70.99
2023-03-26T04:49:08.120Z,71.00
2023-03-26T04:50:08.147Z,71.01
2023-03-26T04:51:08.121Z,70.99
2023-03-26T04:52:08.114Z,71.01
2023-03-26T04:53:08.124Z,71.03
2023-03-26T04:54:08.129Z,71.03
2023-03-26T04:55:08.075Z,71.00
2023-03-26T04:56:08.117Z,70.98
2023-03-26T04:57:08.116Z,71.01
2023-03-26T04:58:08.077Z,71.05
2023-03-26T04:59:08.170Z,71.09
2023-03-26T05:00:08.000Z,71.08
2023-03-26T05:01:10.571Z,71.06
2023-03-26T05:02:08.034Z,71.06
2023-03-26T05:03:08.106Z,71.08
2023-03-26T05:04:08.072Z,71.12
2023-03-26T05:05:08.114Z,71.10
2023-03-26T05:06:08.153Z,71.12
2023-03-26T05:07:07.971Z,71.13
2023-03-26T05:08:07.933Z,71.16
2023-03-26T05:09:08.006Z,71.14
2023-03-26T05:10:07.964Z,71.12
2023-03-26T05:11:07.956Z,71.13
2023-03-26T05:12:07.968Z,71.14
2023-03-26T05:13:07.933Z,71.14
2023-03-26T05:14:07.926Z,71.12
2023-03-26T05:15:07.859Z,71.12
2023-03-26T05:16:08.010Z,71.10
2023-03-26T05:17:07.879Z,71.12
2023-03-26T05:18:07.847Z,71.07
2023-03-26T05:19:07.828Z,71.04
2023-03-26T05:20:07.847Z,71.06
2023-03-26T05:21:07.824Z,71.07
2023-03-26T05:22:07.808Z,71.07
2023-03-26T05:23:07.830Z,71.06
2023-03-26T05:24:07.762Z,71.05
2023-03-26T05:25:07.804Z,71.05
2023-03-26T05:26:07.764Z,71.04
2023-03-26T05:27:07.901Z,71.03
2023-03-26T05:28:07.786Z,71.07
2023-03-26T05:29:07.815Z,71.12
2023-03-26T05:30:07.684Z,71.11
2023-03-26T05:31:07.683Z,71.09
2023-03-26T05:32:07.727Z,71.13
2023-03-26T05:33:07.730Z,71.15
2023-03-26T05:34:07.716Z,71.19
2023-03-26T05:35:07.667Z,71.23
2023-03-26T05:36:07.692Z,71.27
2023-03-26T05:37:07.696Z,71.27
2023-03-26T05:38:07.636Z,71.23
2023-03-26T05:39:07.602Z,71.22
2023-03-26T05:40:07.614Z,71.23
2023-03-26T05:41:07.577Z,71.20
2023-03-26T05:42:07.571Z,71.19
2023-03-26T05:43:07.640Z,71.22
2023-03-26T05:44:07.677Z,71.19
2023-03-26T05:45:07.576Z,71.19
2023-03-26T05:46:07.639Z,71.21
2023-03-26T05:47:07.560Z,71.20
2023-03-26T05:48:07.587Z,71.18
2023-03-26T05:49:07.505Z,71.20
2023-03-26T05:50:07.524Z,71.18
2023-03-26T05:51:07.432Z,71.20
2023-03-26T05:52:07.498Z,71.25
2023-03-26T05:53:07.427Z,71.24
2023-03-26T05:54:07.488Z,71.21
2023-03-26T05:55:07.417Z,71.18
2023-03-26T05:56:07.403Z,71.20
2023-03-26T05:57:07.411Z,71.27
2023-03-26T05:58:07.389Z,71.28
2023-03-26T05:59:07.387Z,71.25
2023-03-26T06:00:07.377Z,71.20
2023-03-26T06:01:07.332Z,71.21
2023-03-26T06:02:07.356Z,71.21
2023-03-26T06:03:07.534Z,71.21
2023-03-26T06:04:07.388Z,71.24
2023-03-26T06:05:07.363Z,71.24
2023-03-26T06:06:07.292Z,71.20
2023-03-26T06:07:07.249Z,71.16
2023-03-26T06:08:07.301Z,71.11
2023-03-26T06:09:07.256Z,71.10
2023-03-26T06:10:07.241Z,71.08
2023-03-26T06:11:07.300Z,71.06
2023-03-26T06:12:07.214Z,71.06
2023-03-26T06:13:07.197Z,71.08
2023-03-26T06:14:07.260Z,71.05
2023-03-26T06:15:07.236Z,71.19
2023-03-26T06:16:07.273Z,71.23
2023-03-26T06:17:07.188Z,71.22
2023-03-26T06:18:07.207Z,71.20
2023-03-26T06:19:07.163Z,71.19
2023-03-26T06:20:09.263Z,71.16
2023-03-26T06:21:07.129Z,71.18
2023-03-26T06:22:07.088Z,71.13
2023-03-26T06:23:07.085Z,71.13
2023-03-26T06:24:07.107Z,71.15
2023-03-26T06:25:07.060Z,71.10
2023-03-26T06:26:07.137Z,71.07
2023-03-26T06:27:07.101Z,71.09
2023-03-26T06:28:07.171Z,71.11
2023-03-26T06:29:07.020Z,71.14
2023-03-26T06:30:07.027Z,71.17
2023-03-26T06:31:07.022Z,71.19
2023-03-26T06:32:18.525Z,71.19
2023-03-26T06:33:08.007Z,71.22
2023-03-26T06:34:07.003Z,71.25
2023-03-26T06:35:06.992Z,71.25
2023-03-26T06:36:07.119Z,71.27
2023-03-26T06:37:07.010Z,71.29
2023-03-26T06:38:06.932Z,71.31
2023-03-26T06:39:07.543Z,71.29
2023-03-26T06:40:06.927Z,71.26
2023-03-26T06:41:06.908Z,71.27
2023-03-26T06:42:06.906Z,71.30
2023-03-26T06:43:10.601Z,71.31
2023-03-26T06:44:06.883Z,71.33
2023-03-26T06:45:06.881Z,71.40
2023-03-26T06:46:06.908Z,71.46
2023-03-26T06:47:06.840Z,71.67
2023-03-26T06:48:06.877Z,71.85
2023-03-26T06:49:06.791Z,71.93
2023-03-26T06:50:06.876Z,71.95
2023-03-26T06:51:06.805Z,71.96
2023-03-26T06:52:06.800Z,72.02
2023-03-26T06:53:06.784Z,71.98
2023-03-26T06:54:06.800Z,71.96
2023-03-26T06:55:06.754Z,72.02
2023-03-26T06:56:09.033Z,71.98
2023-03-26T06:57:07.087Z,71.90
2023-03-26T06:58:06.767Z,71.90
2023-03-26T06:59:06.889Z,71.87
2023-03-26T07:00:06.734Z,71.78
2023-03-26T07:01:06.803Z,71.76
2023-03-26T07:02:06.757Z,71.66
2023-03-26T07:03:06.702Z,71.58
2023-03-26T07:04:06.844Z,71.55
2023-03-26T07:05:06.705Z,71.44
2023-03-26T07:06:06.936Z,71.27
2023-03-26T07:08:38.647Z,70.87
2023-03-26T07:10:57.565Z,70.72
2023-03-26T07:11:57.360Z,70.83
2023-03-26T07:13:08.133Z,70.78
2023-03-26T07:13:57.673Z,70.72
2023-03-26T07:14:58.415Z,70.74
2023-03-26T07:15:56.877Z,70.75
2023-03-26T07:16:56.966Z,70.78
2023-03-26T07:17:57.008Z,70.69
2023-03-26T07:18:56.796Z,70.58
2023-03-26T07:19:57.088Z,70.53
2023-03-26T07:21:07.201Z,70.47
2023-03-26T07:22:04.353Z,70.48
2023-03-26T07:23:14.869Z,70.50
2023-03-26T07:32:06.522Z,70.19
2023-03-26T07:33:06.510Z,70.34
2023-03-26T07:34:05.953Z,70.36
2023-03-26T07:35:05.122Z,70.30
2023-03-26T07:36:06.624Z,70.28
2023-03-26T07:38:23.605Z,70.03
2023-03-26T07:39:23.598Z,70.20
2023-03-26T07:40:25.325Z,70.18
2023-03-26T07:41:23.235Z,70.15
2023-03-26T07:42:23.577Z,70.13
2023-03-26T07:43:23.180Z,70.00
2023-03-26T07:44:23.493Z,69.87
2023-03-26T07:45:23.257Z,69.77
2023-03-26T07:46:23.249Z,69.70
2023-03-26T07:47:23.283Z,69.69
2023-03-26T07:48:23.271Z,69.56
2023-03-26T07:49:23.170Z,69.43
2023-03-26T07:50:23.186Z,69.37
2023-03-26T07:51:23.114Z,69.39
2023-03-26T07:52:23.145Z,69.44
2023-03-26T07:53:23.169Z,69.44
2023-03-26T07:54:23.088Z,69.42
2023-03-26T07:55:23.168Z,69.44
2023-03-26T07:56:23.248Z,69.41
2023-03-26T07:57:23.169Z,69.35
2023-03-26T07:58:23.014Z,69.26
2023-03-26T07:59:23.608Z,69.20
2023-03-26T08:00:22.981Z,69.19
2023-03-26T08:01:23.031Z,69.27
2023-03-26T08:02:23.042Z,69.33
2023-03-26T08:03:23.093Z,69.28
2023-03-26T08:04:25.640Z,69.13
2023-03-26T08:05:22.933Z,69.09
2023-03-26T08:06:22.964Z,69.10
2023-03-26T08:07:22.886Z,69.11
2023-03-26T08:08:23.661Z,69.15
2023-03-26T08:09:22.962Z,69.20
2023-03-26T08:10:22.902Z,69.22
2023-03-26T08:11:22.901Z,69.25
2023-03-26T08:12:22.962Z,69.27
2023-03-26T08:13:22.812Z,69.28
2023-03-26T08:14:22.774Z,69.30
2023-03-26T08:15:22.766Z,69.30
2023-03-26T08:16:22.821Z,69.31
2023-03-26T08:17:22.776Z,69.24
2023-03-26T08:18:22.787Z,69.15
2023-03-26T08:19:22.709Z,69.10
2023-03-26T08:20:22.750Z,69.06
2023-03-26T08:21:22.698Z,68.99
2023-03-26T08:22:22.679Z,68.88
2023-03-26T08:23:22.692Z,68.81
2023-03-26T08:24:22.668Z,68.77
2023-03-26T08:25:22.634Z,68.78
2023-03-26T08:26:22.753Z,68.76
2023-03-26T08:27:22.682Z,68.74
2023-03-26T08:28:22.730Z,68.70
2023-03-26T08:29:22.709Z,68.63
2023-03-26T08:30:22.870Z,68.58
2023-03-26T08:31:22.938Z,68.55
2023-03-26T08:32:22.710Z,68.49
2023-03-26T08:33:22.619Z,68.43
2023-03-26T08:34:22.637Z,68.44
2023-03-26T08:35:22.724Z,68.45
2023-03-26T08:36:22.545Z,67.84
2023-03-26T08:37:22.494Z,66.89
2023-03-26T08:38:22.516Z,66.41
2023-03-26T08:39:22.485Z,66.22
2023-03-26T08:40:22.470Z,66.03
2023-03-26T08:41:22.497Z,66.40
2023-03-26T08:42:22.497Z,66.53
2023-03-26T08:43:22.543Z,66.81
2023-03-26T08:44:22.447Z,66.94
2023-03-26T08:45:22.452Z,67.09
2023-03-26T08:46:22.496Z,67.18
2023-03-26T08:47:22.488Z,67.20
2023-03-26T08:48:22.443Z,67.26
2023-03-26T08:49:24.898Z,67.33
2023-03-26T08:50:22.386Z,67.28
2023-03-26T08:51:22.437Z,67.24
2023-03-26T08:52:22.337Z,67.22
2023-03-26T08:53:22.362Z,67.21
2023-03-26T08:54:22.412Z,67.17
2023-03-26T08:55:22.427Z,66.91
2023-03-26T08:56:22.391Z,66.98
2023-03-26T08:57:22.450Z,67.03
2023-03-26T08:58:22.329Z,67.15
2023-03-26T08:59:22.293Z,67.19
2023-03-26T09:00:22.309Z,67.25
2023-03-26T09:01:22.306Z,67.24
2023-03-26T09:02:22.263Z,67.35
2023-03-26T09:03:22.252Z,67.29
2023-03-26T09:04:22.345Z,67.42
2023-03-26T09:05:22.280Z,67.45
2023-03-26T09:06:24.749Z,67.22
2023-03-26T09:07:22.332Z,67.04
2023-03-26T09:08:22.231Z,67.00
2023-03-26T09:09:22.209Z,66.93
2023-03-26T09:10:22.196Z,66.87
2023-03-26T09:11:22.204Z,66.90
2023-03-26T09:12:23.751Z,66.76
2023-03-26T09:13:22.109Z,66.74
2023-03-26T09:14:22.237Z,66.71
2023-03-26T09:15:22.110Z,66.77
2023-03-26T09:16:22.190Z,66.14
2023-03-26T09:17:22.117Z,65.82
2023-03-26T09:18:22.184Z,66.22
2023-03-26T09:19:22.103Z,66.46
2023-03-26T09:20:22.104Z,66.54
2023-03-26T09:21:22.064Z,66.47
2023-03-26T09:22:22.116Z,66.40
2023-03-26T09:23:22.056Z,66.38
2023-03-26T09:24:22.188Z,66.38
2023-03-26T09:25:22.004Z,66.31
2023-03-26T09:26:21.980Z,66.32
2023-03-26T09:27:21.968Z,66.31
2023-03-26T09:28:21.998Z,66.34
2023-03-26T09:29:21.946Z,66.36
2023-03-26T09:30:21.978Z,66.32
2023-03-26T09:31:22.051Z,66.17
2023-03-26T09:32:21.952Z,66.15
2023-03-26T09:33:21.937Z,66.19
2023-03-26T09:34:22.018Z,66.21
2023-03-26T09:35:21.930Z,66.27
2023-03-26T09:36:21.967Z,66.26
2023-03-26T09:37:21.856Z,66.27
2023-03-26T09:38:21.940Z,66.29
2023-03-26T09:39:21.894Z,66.25
2023-03-26T09:40:21.849Z,66.17
2023-03-26T09:41:21.827Z,66.19
2023-03-26T09:42:22.055Z,66.23
2023-03-26T09:43:21.797Z,66.25
2023-03-26T09:44:21.822Z,66.21
2023-03-26T09:45:21.856Z,66.19
2023-03-26T09:46:21.854Z,66.12
2023-03-26T09:47:21.784Z,66.09
2023-03-26T09:48:21.740Z,66.21
2023-03-26T09:49:21.734Z,66.24
2023-03-26T09:50:21.953Z,66.26
2023-03-26T09:51:21.792Z,66.31
2023-03-26T09:52:21.783Z,66.28
2023-03-26T09:53:21.690Z,66.33
2023-03-26T09:54:21.730Z,66.37
2023-03-26T09:55:21.676Z,66.43
2023-03-26T09:56:21.694Z,66.39
2023-03-26T09:57:21.798Z,66.29
2023-03-26T09:58:21.725Z,66.24
2023-03-26T09:59:21.706Z,66.25
2023-03-26T10:00:21.671Z,66.17
2023-03-26T10:01:21.649Z,65.97
2023-03-26T10:02:21.677Z,65.91
2023-03-26T10:03:21.654Z,65.91
2023-03-26T10:04:21.627Z,65.96
2023-03-26T10:05:21.592Z,65.92
2023-03-26T10:06:21.607Z,65.91
2023-03-26T10:07:21.593Z,65.92
2023-03-26T10:08:21.581Z,65.91
2023-03-26T10:09:21.942Z,65.86
2023-03-26T10:10:29.025Z,65.89
2023-03-26T10:13:30.421Z,65.72
2023-03-26T10:14:30.390Z,65.80
2023-03-26T10:15:30.422Z,65.65
2023-03-26T10:16:30.824Z,65.57
2023-03-26T10:17:30.451Z,65.64
2023-03-26T10:18:30.765Z,65.58
2023-03-26T10:19:30.356Z,65.50
2023-03-26T10:20:30.402Z,65.44
2023-03-26T10:21:30.397Z,65.35
2023-03-26T10:22:30.365Z,65.28
2023-03-26T10:23:30.320Z,65.15
2023-03-26T10:24:30.315Z,65.06
2023-03-26T10:25:30.332Z,65.04
2023-03-26T10:26:37.429Z,65.02
2023-03-26T10:27:30.273Z,64.30
2023-03-26T10:28:30.240Z,64.28
2023-03-26T10:29:30.257Z,64.27
2023-03-26T10:30:30.356Z,64.34
2023-03-26T10:31:30.313Z,64.38
2023-03-26T10:32:30.224Z,64.46
2023-03-26T10:33:30.200Z,64.57
2023-03-26T10:34:30.161Z,64.54
2023-03-26T10:35:30.230Z,64.51
2023-03-26T10:36:30.174Z,64.48
2023-03-26T10:37:30.173Z,64.45
2023-03-26T10:38:30.147Z,64.36
2023-03-26T10:39:37.379Z,64.25
2023-03-26T10:40:31.174Z,64.23
2023-03-26T10:41:30.087Z,64.31
2023-03-26T10:42:30.106Z,64.25
2023-03-26T10:43:30.077Z,63.96
2023-03-26T10:44:30.263Z,64.06
2023-03-26T10:45:30.109Z,64.07
2023-03-26T10:46:30.084Z,63.69
2023-03-26T10:47:30.124Z,63.70
2023-03-26T10:48:30.038Z,63.80
2023-03-26T10:49:30.092Z,63.87
2023-03-26T10:50:30.064Z,63.98
2023-03-26T10:51:30.040Z,64.04
2023-03-26T10:52:30.037Z,64.11
2023-03-26T10:53:30.048Z,64.09
2023-03-26T10:54:29.982Z,63.95
2023-03-26T10:55:29.977Z,63.70
2023-03-26T10:56:30.058Z,63.60
2023-03-26T10:57:29.951Z,63.44
2023-03-26T10:58:46.102Z,63.49
2023-03-26T10:59:30.924Z,63.51
2023-03-26T11:00:29.904Z,63.53
2023-03-26T11:01:30.057Z,63.43
2023-03-26T11:02:30.357Z,63.39
2023-03-26T11:03:29.886Z,63.36
2023-03-26T11:04:29.888Z,63.36
2023-03-26T11:05:29.881Z,63.30
2023-03-26T11:06:29.843Z,63.22
2023-03-26T11:07:29.906Z,63.14
2023-03-26T11:08:31.036Z,62.84
2023-03-26T11:09:29.949Z,62.88
2023-03-26T11:10:37.319Z,62.90
2023-03-26T11:11:37.266Z,62.99
2023-03-26T11:12:29.784Z,62.91
2023-03-26T11:13:36.818Z,62.97
2023-03-26T11:14:37.265Z,62.89
2023-03-26T11:15:38.270Z,62.84
2023-03-26T11:16:37.211Z,62.71
2023-03-26T11:17:40.721Z,62.67
2023-03-26T11:18:38.509Z,62.25
2023-03-26T11:19:38.619Z,62.20
2023-03-26T11:20:36.795Z,62.33
2023-03-26T11:21:37.239Z,62.40
2023-03-26T11:22:37.152Z,62.49
2023-03-26T11:23:29.626Z,62.62
2023-03-26T11:24:29.641Z,62.60
2023-03-26T11:25:29.602Z,62.46
2023-03-26T11:26:29.590Z,61.90
2023-03-26T11:27:29.654Z,62.60
2023-03-26T11:28:29.574Z,63.17
2023-03-26T11:29:31.240Z,63.41
2023-03-26T11:30:29.560Z,63.38
2023-03-26T11:31:29.592Z,63.89
2023-03-26T11:32:29.543Z,61.69
2023-03-26T11:33:32.756Z,60.57
2023-03-26T11:34:29.524Z,60.52
2023-03-26T11:35:40.525Z,60.25
2023-03-26T11:36:30.540Z,60.55
2023-03-26T11:37:29.486Z,61.00
2023-03-26T11:38:29.468Z,61.26
2023-03-26T11:39:29.644Z,61.40
2023-03-26T11:40:29.505Z,61.56
2023-03-26T11:41:29.457Z,61.73
2023-03-26T11:42:29.430Z,61.98
2023-03-26T11:43:29.418Z,62.20
2023-03-26T11:44:29.397Z,61.76
2023-03-26T11:45:29.680Z,61.16
2023-03-26T11:46:30.042Z,61.10
2023-03-26T11:47:29.472Z,61.11
2023-03-26T11:48:29.356Z,61.00
2023-03-26T11:49:29.409Z,60.92
2023-03-26T11:50:29.335Z,60.79
2023-03-26T11:51:29.381Z,60.71
2023-03-26T11:52:29.367Z,60.90
2023-03-26T11:53:29.354Z,60.99
2023-03-26T11:54:29.278Z,61.41
2023-03-26T11:55:29.326Z,61.54
2023-03-26T11:56:29.261Z,61.23
2023-03-26T11:57:29.279Z,61.16
2023-03-26T11:58:29.241Z,60.85
2023-03-26T11:59:29.299Z,60.66
2023-03-26T12:00:29.270Z,60.79
2023-03-26T12:01:29.222Z,60.89
2023-03-26T12:02:29.807Z,60.97
2023-03-26T12:03:29.264Z,60.99
2023-03-26T12:04:31.760Z,60.77
2023-03-26T12:05:29.240Z,60.74
2023-03-26T12:06:29.218Z,60.59
2023-03-26T12:07:29.157Z,60.23
2023-03-26T12:08:29.131Z,60.02
2023-03-26T12:09:29.163Z,60.16
2023-03-26T12:10:29.114Z,60.29
2023-03-26T12:11:29.120Z,60.45
2023-03-26T12:12:29.106Z,60.61
2023-03-26T12:13:29.093Z,60.83
2023-03-26T12:14:29.118Z,61.07
2023-03-26T12:15:29.051Z,61.28
2023-03-26T12:16:29.104Z,61.45
2023-03-26T12:17:31.470Z,61.60
2023-03-26T12:18:29.111Z,61.67
2023-03-26T12:19:29.092Z,61.69
2023-03-26T12:20:29.022Z,61.64
2023-03-26T12:21:29.141Z,61.71
2023-03-26T12:22:28.994Z,61.76
2023-03-26T12:23:28.983Z,61.84
2023-03-26T12:24:28.951Z,61.89
2023-03-26T12:25:28.946Z,62.03
2023-03-26T12:26:28.997Z,62.21
2023-03-26T12:27:28.939Z,62.52
2023-03-26T12:28:28.957Z,62.79
2023-03-26T12:29:29.014Z,63.05
2023-03-26T12:30:28.911Z,63.29
2023-03-26T12:31:28.988Z,63.57
2023-03-26T12:32:42.944Z,63.88
2023-03-26T12:33:29.922Z,63.94
2023-03-26T12:34:28.909Z,64.24
2023-03-26T12:35:28.845Z,64.50
2023-03-26T12:36:28.861Z,64.46
2023-03-26T12:37:28.875Z,64.64
2023-03-26T12:38:28.921Z,64.81
2023-03-26T12:40:08.733Z,64.93
2023-03-26T12:40:29.861Z,65.00
2023-03-26T12:43:51.591Z,65.11
2023-03-26T12:44:47.105Z,65.34
2023-03-26T12:44:51.383Z,65.28
2023-03-26T12:44:53.797Z,65.51
2023-03-26T12:45:29.782Z,65.59
2023-03-26T12:47:55.707Z,65.61
2023-03-26T12:47:58.789Z,65.69
2023-03-26T12:48:29.805Z,65.82
2023-03-26T12:49:28.847Z,65.98
2023-03-26T12:50:34.637Z,66.14
2023-03-26T12:51:29.676Z,66.40
2023-03-26T12:52:28.928Z,66.62
2023-03-26T12:53:28.751Z,66.93
2023-03-26T12:54:28.657Z,66.90
2023-03-26T12:55:28.745Z,66.95
2023-03-26T12:56:28.650Z,67.12
2023-03-26T12:57:28.664Z,67.32
2023-03-26T12:58:28.669Z,67.31
2023-03-26T12:59:28.646Z,67.29
2023-03-26T13:00:28.605Z,67.47
2023-03-26T13:01:28.745Z,67.47
2023-03-26T13:02:28.641Z,67.53
2023-03-26T13:03:28.621Z,67.62
2023-03-26T13:04:28.769Z,67.57
2023-03-26T13:05:28.826Z,67.23
2023-03-26T13:06:28.555Z,67.28